Time;durP1;ratioP1;P1;durP2;ratioP2;P2;SDS_P1;SDS_P2;PMS_P1;PMS_P2;Temp;Humidity;BMP_temperature;BMP_pressure;BME280_temperature;BME280_humidity;BME280_pressure;Samples;Min_cycle;Max_cycle;Signal;HPM_P1;HPM_P2
2021/09/26 00:00:33;;;;;;;8.10;7.07;;;;;;;;;;4995686;28;20522;-75
2021/09/26 00:03:37;;;;;;;8.70;7.70;;;;;;;;;;4995578;28;20186;-75
2021/09/26 00:06:42;;;;;;;10.73;9.07;;;;;;;;;;4992047;28;20203;-75
2021/09/26 00:09:46;;;;;;;10.10;9.10;;;;;;;;;;4988750;28;20182;-75
2021/09/26 00:12:50;;;;;;;9.93;8.60;;;;;;;;;;4988022;28;20214;-75
2021/09/26 00:15:54;;;;;;;9.63;8.30;;;;;;;;;;4995529;28;20187;-75
2021/09/26 00:18:58;;;;;;;10.03;9.03;;;;;;;;;;4988679;28;20210;-75
2021/09/26 00:22:03;;;;;;;9.97;8.97;;;;;;;;;;4994750;28;20550;-74
2021/09/26 00:25:16;;;;;;;10.63;9.23;;;;;;;;;;4995362;28;20191;-75
2021/09/26 00:28:22;;;;;;;10.37;8.37;;;;;;;;;;4995013;28;20202;-75
2021/09/26 00:31:26;;;;;;;12.53;8.77;;;;;;;;;;4994520;28;20218;-75
2021/09/26 00:34:31;;;;;;;13.47;9.47;;;;;;;;;;4974497;28;20614;-75
2021/09/26 00:37:35;;;;;;;8.63;7.73;;;;;;;;;;4987321;28;20198;-75
2021/09/26 00:40:39;;;;;;;11.37;8.47;;;;;;;;;;4999513;28;20194;-75
2021/09/26 00:43:43;;;;;;;9.43;8.23;;;;;;;;;;4995055;28;20186;-75
2021/09/26 00:46:48;;;;;;;11.37;7.70;;;;;;;;;;4994798;28;20614;-75
2021/09/26 00:49:53;;;;;;;9.70;7.90;;;;;;;;;;4994572;28;20194;-75
2021/09/26 00:52:57;;;;;;;9.77;8.33;;;;;;;;;;4975241;28;20183;-75
2021/09/26 00:56:01;;;;;;;8.90;8.00;;;;;;;;;;4984067;28;20202;-74
2021/09/26 00:59:05;;;;;;;9.57;8.07;;;;;;;;;;4971438;28;20661;-74
2021/09/26 01:02:09;;;;;;;8.40;7.27;;;;;;;;;;4983807;28;20222;-75
2021/09/26 01:05:15;;;;;;;9.10;8.20;;;;;;;;;;4994462;28;20186;-75
2021/09/26 01:08:33;;;;;;;9.23;8.23;;;;;;;;;;4982753;28;20174;-75
2021/09/26 01:12:00;;;;;;;10.50;8.73;;;;;;;;;;4993948;28;20221;-75
2021/09/26 01:15:20;;;;;;;10.20;8.17;;;;;;;;;;4993428;28;20202;-75
2021/09/26 01:18:54;;;;;;;9.57;8.30;;;;;;;;;;4988116;28;20218;-75
2021/09/26 01:22:01;;;;;;;11.10;8.70;;;;;;;;;;4984045;28;20221;-75
2021/09/26 01:25:42;;;;;;;11.23;8.40;;;;;;;;;;4988188;28;20190;-75
2021/09/26 01:29:28;;;;;;;12.17;10.10;;;;;;;;;;4993151;28;20535;-75
2021/09/26 01:32:34;;;;;;;10.40;8.53;;;;;;;;;;4982012;28;20569;-75
2021/09/26 01:35:50;;;;;;;10.27;8.77;;;;;;;;;;4993759;28;20285;-74
2021/09/26 01:39:20;;;;;;;10.17;8.43;;;;;;;;;;4962450;28;20215;-75
2021/09/26 01:42:33;;;;;;;9.17;8.20;;;;;;;;;;4992600;28;20225;-75
2021/09/26 01:45:49;;;;;;;10.20;9.10;;;;;;;;;;4981947;28;20645;-75
2021/09/26 01:49:01;;;;;;;12.17;9.87;;;;;;;;;;4993863;28;20190;-75
2021/09/26 01:52:10;;;;;;;11.47;10.03;;;;;;;;;;4993608;28;20225;-75
2021/09/26 01:55:14;;;;;;;10.33;9.23;;;;;;;;;;4982267;28;20203;-75
2021/09/26 01:58:20;;;;;;;11.53;9.30;;;;;;;;;;4986850;28;20210;-75
2021/09/26 02:01:24;;;;;;;9.73;8.73;;;;;;;;;;4985268;28;20217;-75
2021/09/26 02:04:30;;;;;;;8.87;7.93;;;;;;;;;;4970743;28;20202;-75
2021/09/26 02:07:38;;;;;;;10.07;8.83;;;;;;;;;;4993560;28;20194;-75
2021/09/26 02:10:44;;;;;;;14.40;9.53;;;;;;;;;;4993258;28;20210;-74
2021/09/26 02:13:49;;;;;;;14.03;10.17;;;;;;;;;;4981696;28;20206;-75
2021/09/26 02:16:54;;;;;;;15.00;10.10;;;;;;;;;;4993346;28;20205;-75
2021/09/26 02:20:01;;;;;;;10.77;9.57;;;;;;;;;;4993064;28;20229;-75
2021/09/26 02:23:07;;;;;;;11.40;10.00;;;;;;;;;;4987374;28;20538;-75
2021/09/26 02:26:11;;;;;;;9.37;8.47;;;;;;;;;;4986184;28;20199;-75
2021/09/26 02:29:15;;;;;;;10.80;9.37;;;;;;;;;;4992941;28;20187;-74
2021/09/26 02:32:20;;;;;;;11.37;9.80;;;;;;;;;;4993290;28;20226;-75
2021/09/26 02:35:24;;;;;;;12.47;9.67;;;;;;;;;;4989035;28;20182;-75
2021/09/26 02:38:28;;;;;;;12.80;10.63;;;;;;;;;;4996918;28;20210;-75
2021/09/26 02:41:44;;;;;;;12.97;10.63;;;;;;;;;;4997160;28;20233;-75
2021/09/26 02:44:55;;;;;;;11.53;10.07;;;;;;;;;;4997279;28;20193;-75
2021/09/26 02:48:02;;;;;;;11.57;10.30;;;;;;;;;;4996982;28;20210;-75
2021/09/26 02:51:07;;;;;;;12.07;9.87;;;;;;;;;;4984404;28;20227;-74
2021/09/26 02:54:12;;;;;;;12.87;9.73;;;;;;;;;;4985076;28;20210;-75
2021/09/26 02:57:16;;;;;;;10.70;9.17;;;;;;;;;;4984689;28;20198;-75
2021/09/26 03:00:20;;;;;;;13.87;10.50;;;;;;;;;;4996647;28;20206;-75
2021/09/26 03:03:27;;;;;;;16.47;9.93;;;;;;;;;;4984939;28;20207;-75
2021/09/26 03:06:31;;;;;;;12.13;10.17;;;;;;;;;;4976555;28;20202;-75
2021/09/26 03:09:35;;;;;;;10.17;8.83;;;;;;;;;;4990161;28;20197;-75
2021/09/26 03:12:39;;;;;;;11.70;8.70;;;;;;;;;;4995613;28;20685;-74
2021/09/26 03:15:44;;;;;;;12.20;10.17;;;;;;;;;;5021753;23;20225;-74
2021/09/26 03:18:48;;;;;;;13.43;10.30;;;;;;;;;;5015675;28;20606;-73
2021/09/26 03:21:52;;;;;;;14.23;9.20;;;;;;;;;;4996355;28;20232;-74
2021/09/26 03:24:56;;;;;;;15.00;10.07;;;;;;;;;;4988145;28;20675;-74
2021/09/26 03:28:00;;;;;;;15.57;10.87;;;;;;;;;;5015775;28;20193;-73
2021/09/26 03:31:04;;;;;;;15.73;10.63;;;;;;;;;;5015676;28;20224;-74
2021/09/26 03:34:08;;;;;;;12.93;10.60;;;;;;;;;;5003666;28;20197;-74
2021/09/26 03:37:12;;;;;;;18.20;11.83;;;;;;;;;;5015764;28;20194;-74
2021/09/26 03:40:17;;;;;;;14.83;11.00;;;;;;;;;;5015574;28;20678;-74
2021/09/26 03:43:21;;;;;;;15.17;10.50;;;;;;;;;;5003998;28;20253;-73
2021/09/26 03:46:25;;;;;;;12.97;10.07;;;;;;;;;;5002919;28;20200;-74
2021/09/26 03:49:29;;;;;;;15.40;10.83;;;;;;;;;;5015178;28;20691;-73
2021/09/26 03:52:35;;;;;;;11.50;9.07;;;;;;;;;;5015356;28;20228;-74
2021/09/26 03:55:40;;;;;;;12.87;9.93;;;;;;;;;;5003015;28;20190;-73
2021/09/26 03:58:44;;;;;;;10.33;9.13;;;;;;;;;;5015069;28;20221;-73
2021/09/26 04:01:49;;;;;;;13.40;9.90;;;;;;;;;;5015045;28;20217;-73
2021/09/26 04:04:53;;;;;;;11.23;9.50;;;;;;;;;;5014749;28;20189;-73
2021/09/26 04:07:57;;;;;;;10.90;9.67;;;;;;;;;;5003099;28;20517;-74
2021/09/26 04:11:02;;;;;;;11.40;9.97;;;;;;;;;;5002669;28;20220;-73
2021/09/26 04:14:06;;;;;;;11.93;9.67;;;;;;;;;;5014917;28;20186;-74
2021/09/26 04:17:11;;;;;;;12.50;10.20;;;;;;;;;;5015180;28;20174;-74
2021/09/26 04:20:15;;;;;;;13.97;11.73;;;;;;;;;;5014574;28;20220;-73
2021/09/26 04:23:19;;;;;;;14.63;11.07;;;;;;;;;;5015093;28;20192;-74
2021/09/26 04:26:23;;;;;;;13.93;11.97;;;;;;;;;;4995405;28;20178;-73
2021/09/26 04:29:28;;;;;;;15.00;11.60;;;;;;;;;;4999796;28;20185;-73
2021/09/26 04:32:32;;;;;;;16.43;11.30;;;;;;;;;;5002485;28;20236;-74
2021/09/26 04:35:36;;;;;;;17.47;11.50;;;;;;;;;;5014343;28;20206;-73
2021/09/26 04:38:40;;;;;;;13.17;10.83;;;;;;;;;;5002300;28;20210;-73
2021/09/26 04:41:44;;;;;;;16.67;11.07;;;;;;;;;;5014347;28;20228;-73
2021/09/26 04:44:48;;;;;;;15.87;11.57;;;;;;;;;;5013970;28;20193;-73
2021/09/26 04:47:52;;;;;;;13.67;11.17;;;;;;;;;;5014391;28;20682;-74
2021/09/26 04:50:56;;;;;;;12.80;10.80;;;;;;;;;;5002135;28;20218;-74
2021/09/26 04:54:00;;;;;;;15.03;10.87;;;;;;;;;;5014210;28;20224;-74
2021/09/26 04:57:05;;;;;;;16.20;11.47;;;;;;;;;;5013749;28;20208;-73
2021/09/26 05:00:10;;;;;;;16.87;12.00;;;;;;;;;;5002020;28;20228;-74
2021/09/26 05:03:14;;;;;;;11.40;9.67;;;;;;;;;;5013878;28;20201;-74
2021/09/26 05:06:18;;;;;;;15.43;10.43;;;;;;;;;;5002627;28;20200;-73
2021/09/26 05:09:22;;;;;;;15.67;11.13;;;;;;;;;;5014311;28;20188;-74
2021/09/26 05:12:26;;;;;;;14.10;11.00;;;;;;;;;;5014000;28;20581;-74
2021/09/26 05:15:31;;;;;;;14.70;10.73;;;;;;;;;;5013510;28;20216;-74
2021/09/26 05:18:35;;;;;;;16.17;11.07;;;;;;;;;;5007770;28;20189;-74
2021/09/26 05:21:39;;;;;;;12.40;9.93;;;;;;;;;;5013831;28;20225;-74
2021/09/26 05:24:42;;;;;;;17.83;10.60;;;;;;;;;;5013637;28;20647;-74
2021/09/26 05:27:47;;;;;;;15.17;10.80;;;;;;;;;;5013726;28;20208;-74
2021/09/26 05:30:51;;;;;;;16.30;11.10;;;;;;;;;;5006977;28;20220;-74
2021/09/26 05:33:56;;;;;;;13.63;9.90;;;;;;;;;;5013162;28;20196;-74
2021/09/26 05:37:00;;;;;;;14.10;10.03;;;;;;;;;;5001008;28;20197;-74
2021/09/26 05:40:06;;;;;;;13.43;10.80;;;;;;;;;;5007334;28;20232;-74
2021/09/26 05:43:10;;;;;;;13.97;10.20;;;;;;;;;;5012993;28;20200;-74
2021/09/26 05:46:14;;;;;;;13.57;10.03;;;;;;;;;;5013685;28;20543;-74
2021/09/26 05:49:18;;;;;;;28.20;9.10;;;;;;;;;;5012960;28;20205;-74
2021/09/26 05:52:22;;;;;;;10.80;8.70;;;;;;;;;;5013222;28;20233;-74
2021/09/26 05:55:26;;;;;;;11.20;9.13;;;;;;;;;;5012909;28;20558;-73
2021/09/26 05:58:30;;;;;;;9.37;7.60;;;;;;;;;;5001660;28;20678;-74
2021/09/26 06:01:35;;;;;;;10.63;8.07;;;;;;;;;;5003651;28;20209;-73
2021/09/26 06:04:39;;;;;;;11.57;8.00;;;;;;;;;;5003528;28;20177;-74
2021/09/26 06:07:43;;;;;;;11.03;7.20;;;;;;;;;;5013401;28;20193;-74
2021/09/26 06:10:47;;;;;;;9.67;6.90;;;;;;;;;;5017344;28;20557;-74
2021/09/26 06:13:52;;;;;;;10.23;7.07;;;;;;;;;;5016607;28;20521;-74
2021/09/26 06:16:55;;;;;;;9.90;6.43;;;;;;;;;;5016365;28;20189;-73
2021/09/26 06:20:00;;;;;;;12.73;7.43;;;;;;;;;;4997379;28;20210;-73
2021/09/26 06:23:04;;;;;;;13.77;7.63;;;;;;;;;;5012134;28;20533;-73
2021/09/26 06:26:08;;;;;;;12.30;7.10;;;;;;;;;;5016885;28;20188;-74
2021/09/26 06:29:12;;;;;;;14.57;7.33;;;;;;;;;;5024529;28;20204;-74
2021/09/26 06:32:16;;;;;;;8.90;7.00;;;;;;;;;;5036520;28;20217;-73
2021/09/26 06:35:20;;;;;;;10.20;6.10;;;;;;;;;;5021024;28;20205;-73
2021/09/26 06:38:24;;;;;;;11.13;6.17;;;;;;;;;;5010119;28;20644;-74
2021/09/26 06:41:28;;;;;;;7.20;6.47;;;;;;;;;;5004478;28;20221;-73
2021/09/26 06:44:33;;;;;;;9.37;5.83;;;;;;;;;;5016812;28;20181;-73
2021/09/26 06:47:38;;;;;;;9.93;6.47;;;;;;;;;;5016547;28;20178;-74
2021/09/26 06:50:42;;;;;;;11.50;5.50;;;;;;;;;;5009988;28;20221;-73
2021/09/26 06:53:46;;;;;;;5.83;5.23;;;;;;;;;;5004296;28;20194;-74
2021/09/26 06:56:50;;;;;;;11.07;5.67;;;;;;;;;;4996758;28;20198;-74
2021/09/26 06:59:54;;;;;;;7.07;5.23;;;;;;;;;;4996653;28;20206;-73
2021/09/26 07:02:58;;;;;;;7.40;5.03;;;;;;;;;;4996757;28;20178;-74
2021/09/26 07:06:02;;;;;;;7.20;5.83;;;;;;;;;;4996663;28;20174;-74
2021/09/26 07:09:06;;;;;;;7.40;4.93;;;;;;;;;;4999372;28;20202;-73
2021/09/26 07:12:10;;;;;;;5.20;4.50;;;;;;;;;;5009768;28;20699;-74
2021/09/26 07:15:14;;;;;;;5.60;5.10;;;;;;;;;;5005628;28;20201;-74
2021/09/26 07:18:18;;;;;;;6.93;5.47;;;;;;;;;;5011296;28;20213;-73
2021/09/26 07:21:22;;;;;;;5.97;5.30;;;;;;;;;;5007033;28;20237;-73
2021/09/26 07:24:27;;;;;;;6.33;5.13;;;;;;;;;;5015823;28;20193;-73
2021/09/26 07:27:31;;;;;;;6.47;5.20;;;;;;;;;;5015434;28;20197;-74
2021/09/26 07:30:35;;;;;;;6.13;4.93;;;;;;;;;;5014883;28;20644;-73
2021/09/26 07:33:39;;;;;;;6.07;4.90;;;;;;;;;;5015483;28;20197;-73
2021/09/26 07:36:43;;;;;;;6.20;4.60;;;;;;;;;;5015538;28;20197;-73
2021/09/26 07:39:47;;;;;;;4.83;4.33;;;;;;;;;;4996719;28;20206;-73
2021/09/26 07:42:51;;;;;;;5.40;4.43;;;;;;;;;;4998234;28;20185;-74
2021/09/26 07:45:56;;;;;;;6.80;4.70;;;;;;;;;;4996098;28;20182;-73
2021/09/26 07:49:02;;;;;;;6.43;4.23;;;;;;;;;;5012213;28;20197;-73
2021/09/26 07:52:07;;;;;;;7.60;4.37;;;;;;;;;;5017120;28;20217;-74
2021/09/26 07:55:11;;;;;;;4.90;4.40;;;;;;;;;;5035325;28;20177;-73
2021/09/26 07:58:15;;;;;;;7.83;4.33;;;;;;;;;;5035275;28;20177;-73
2021/09/26 08:01:19;;;;;;;9.40;4.57;;;;;;;;;;5022577;28;20576;-73
2021/09/26 08:04:23;;;;;;;12.67;4.60;;;;;;;;;;4995692;28;20191;-73
2021/09/26 08:07:29;;;;;;;6.00;4.00;;;;;;;;;;5010156;28;20629;-73
2021/09/26 08:10:33;;;;;;;5.93;3.97;;;;;;;;;;5014835;28;20185;-73
2021/09/26 08:13:37;;;;;;;8.50;4.07;;;;;;;;;;5002239;28;20191;-73
2021/09/26 08:16:41;;;;;;;9.00;4.57;;;;;;;;;;5014393;28;20203;-73
2021/09/26 08:19:45;;;;;;;7.90;4.77;;;;;;;;;;5002489;28;20208;-73
2021/09/26 08:22:52;;;;;;;6.03;4.40;;;;;;;;;;5014760;28;20204;-73
2021/09/26 08:25:56;;;;;;;6.23;3.80;;;;;;;;;;5002692;28;20196;-73
2021/09/26 08:29:01;;;;;;;4.60;3.80;;;;;;;;;;5014702;28;20198;-73
2021/09/26 08:32:06;;;;;;;11.80;4.47;;;;;;;;;;5014120;28;20216;-73
2021/09/26 08:35:10;;;;;;;6.87;4.33;;;;;;;;;;5002858;28;20635;-73
2021/09/26 08:38:14;;;;;;;5.87;3.80;;;;;;;;;;5014335;28;20175;-73
2021/09/26 08:41:19;;;;;;;5.17;3.43;;;;;;;;;;4998611;28;20225;-73
2021/09/26 08:44:26;;;;;;;7.03;3.65;;;;;;;;;;5010630;28;20711;-73
2021/09/26 08:47:36;;;;;;;7.37;3.50;;;;;;;;;;5010961;28;20185;-73
2021/09/26 08:50:42;;;;;;;4.10;3.70;;;;;;;;;;5010519;28;20184;-73
2021/09/26 08:53:47;;;;;;;7.23;3.60;;;;;;;;;;5010915;28;20208;-73
2021/09/26 08:56:51;;;;;;;6.30;3.65;;;;;;;;;;5010827;28;20205;-73
2021/09/26 08:59:55;;;;;;;6.57;3.58;;;;;;;;;;4998204;28;20194;-73
2021/09/26 09:03:00;;;;;;;5.22;3.65;;;;;;;;;;5010166;28;20197;-73
2021/09/26 09:06:05;;;;;;;8.07;3.47;;;;;;;;;;4987446;28;20188;-73
2021/09/26 09:09:15;;;;;;;6.68;3.72;;;;;;;;;;5010760;28;20191;-73
2021/09/26 09:12:32;;;;;;;7.53;3.83;;;;;;;;;;4997978;28;20223;-73
2021/09/26 09:15:38;;;;;;;6.43;3.53;;;;;;;;;;4996513;28;20212;-73
2021/09/26 09:18:56;;;;;;;6.97;3.17;;;;;;;;;;5007378;28;20198;-74
2021/09/26 09:22:05;;;;;;;5.07;3.47;;;;;;;;;;5006272;28;20227;-73
2021/09/26 09:25:43;;;;;;;6.15;3.90;;;;;;;;;;5005997;28;20669;-73
2021/09/26 09:28:48;;;;;;;5.35;3.50;;;;;;;;;;4997408;28;20631;-74
2021/09/26 09:31:55;;;;;;;6.22;3.55;;;;;;;;;;4993125;28;20224;-73
2021/09/26 09:34:59;;;;;;;8.95;3.70;;;;;;;;;;4998014;28;20227;-73
2021/09/26 09:38:03;;;;;;;4.22;3.10;;;;;;;;;;5008963;28;20565;-73
2021/09/26 09:41:07;;;;;;;6.68;3.42;;;;;;;;;;5009289;28;20234;-73
2021/09/26 09:44:14;;;;;;;5.35;3.63;;;;;;;;;;5009775;28;20212;-73
2021/09/26 09:47:21;;;;;;;5.00;3.75;;;;;;;;;;5009307;28;20197;-73
2021/09/26 09:50:41;;;;;;;8.32;3.70;;;;;;;;;;4992165;28;20195;-73
2021/09/26 09:53:46;;;;;;;7.75;4.10;;;;;;;;;;4997985;28;20186;-73
2021/09/26 09:56:50;;;;;;;7.50;3.78;;;;;;;;;;5010081;28;20202;-73
2021/09/26 09:59:55;;;;;;;7.65;3.70;;;;;;;;;;5008320;28;20200;-73
2021/09/26 10:02:59;;;;;;;3.92;3.50;;;;;;;;;;5007746;28;20195;-74
2021/09/26 10:06:25;;;;;;;5.50;3.55;;;;;;;;;;5004502;28;20202;-73
2021/09/26 10:09:29;;;;;;;6.82;3.42;;;;;;;;;;4978220;28;20183;-74
2021/09/26 10:12:33;;;;;;;9.15;3.60;;;;;;;;;;4990145;28;20215;-74
2021/09/26 10:15:38;;;;;;;7.90;3.92;;;;;;;;;;4998250;28;20208;-74
2021/09/26 10:18:42;;;;;;;7.13;3.90;;;;;;;;;;5002773;28;20597;-74
2021/09/26 10:21:49;;;;;;;6.60;3.85;;;;;;;;;;4986291;28;20235;-74
2021/09/26 10:24:56;;;;;;;7.55;3.85;;;;;;;;;;5004539;28;20209;-73
2021/09/26 10:28:01;;;;;;;6.60;3.88;;;;;;;;;;5002581;28;20198;-74
2021/09/26 10:31:05;;;;;;;7.78;4.00;;;;;;;;;;5003305;28;20713;-73
2021/09/26 10:34:10;;;;;;;6.53;3.90;;;;;;;;;;5005448;28;20197;-73
2021/09/26 10:37:15;;;;;;;10.18;4.30;;;;;;;;;;5005579;28;20209;-74
2021/09/26 10:40:19;;;;;;;6.43;3.88;;;;;;;;;;4997574;28;20644;-73
2021/09/26 10:43:28;;;;;;;6.32;4.15;;;;;;;;;;5001141;28;20202;-73
2021/09/26 10:46:33;;;;;;;8.80;4.18;;;;;;;;;;4993338;28;20203;-73
2021/09/26 10:49:46;;;;;;;7.53;4.28;;;;;;;;;;5004395;28;20770;-73
2021/09/26 10:52:51;;;;;;;8.93;4.53;;;;;;;;;;5003648;28;20215;-73
2021/09/26 10:55:55;;;;;;;8.57;3.80;;;;;;;;;;5004492;28;20209;-73
2021/09/26 10:59:00;;;;;;;7.95;4.00;;;;;;;;;;5003620;28;20199;-73
2021/09/26 11:02:24;;;;;;;6.43;3.83;;;;;;;;;;5001815;28;20227;-73
2021/09/26 11:05:51;;;;;;;10.18;4.22;;;;;;;;;;5012904;28;20733;-73
2021/09/26 11:08:59;;;;;;;7.03;4.15;;;;;;;;;;4997375;28;20197;-73
2021/09/26 11:12:03;;;;;;;4.82;3.53;;;;;;;;;;4988966;28;20228;-73
2021/09/26 11:15:11;;;;;;;6.93;4.13;;;;;;;;;;4997722;28;20210;-72
2021/09/26 11:18:58;;;;;;;10.35;4.35;;;;;;;;;;5012241;28;20197;-72
2021/09/26 11:22:04;;;;;;;8.45;4.15;;;;;;;;;;4995608;28;20582;-73
2021/09/26 11:25:08;;;;;;;9.30;4.55;;;;;;;;;;5004104;28;20199;-72
2021/09/26 11:28:23;;;;;;;8.10;3.78;;;;;;;;;;5008096;28;20202;-73
2021/09/26 11:31:41;;;;;;;7.63;4.40;;;;;;;;;;5011626;28;20597;-73
2021/09/26 11:34:48;;;;;;;9.10;4.07;;;;;;;;;;5000148;28;20206;-73
2021/09/26 11:37:54;;;;;;;9.00;3.90;;;;;;;;;;5032004;22;20193;-76
2021/09/26 11:41:05;;;;;;;7.72;3.90;;;;;;;;;;5020845;28;20235;-76
2021/09/26 11:44:09;;;;;;;6.60;4.35;;;;;;;;;;5062745;28;20635;-75
2021/09/26 11:47:13;;;;;;;5.85;4.07;;;;;;;;;;5066401;28;20184;-76
2021/09/26 11:50:17;;;;;;;5.40;3.60;;;;;;;;;;5060103;28;20204;-76
2021/09/26 11:53:23;;;;;;;7.20;3.70;;;;;;;;;;5061338;28;20165;-76
2021/09/26 11:56:32;;;;;;;11.13;4.22;;;;;;;;;;5041852;28;20185;-74
2021/09/26 11:59:38;;;;;;;8.52;3.97;;;;;;;;;;5042592;28;20194;-76
2021/09/26 12:02:42;;;;;;;9.05;3.88;;;;;;;;;;5056585;28;20570;-76
2021/09/26 12:05:46;;;;;;;5.47;3.38;;;;;;;;;;5059712;28;20205;-74
2021/09/26 12:08:50;;;;;;;6.68;3.53;;;;;;;;;;5042796;28;20186;-74
2021/09/26 12:11:54;;;;;;;5.95;3.30;;;;;;;;;;5031074;28;20216;-74
2021/09/26 12:15:00;;;;;;;4.57;3.45;;;;;;;;;;5031091;28;20210;-76
2021/09/26 12:18:04;;;;;;;7.93;3.63;;;;;;;;;;5054638;28;20201;-74
2021/09/26 12:21:10;;;;;;;7.97;3.47;;;;;;;;;;5042362;28;20220;-74
2021/09/26 12:24:16;;;;;;;5.22;3.28;;;;;;;;;;5042225;28;20201;-75
2021/09/26 12:27:35;;;;;;;7.28;3.35;;;;;;;;;;5054753;28;20179;-76
2021/09/26 12:30:39;;;;;;;7.18;3.28;;;;;;;;;;5030738;28;20179;-74
2021/09/26 12:33:45;;;;;;;5.35;3.20;;;;;;;;;;5042393;28;20172;-75
2021/09/26 12:36:49;;;;;;;10.05;3.80;;;;;;;;;;5054615;28;20174;-74
2021/09/26 12:39:58;;;;;;;6.30;3.30;;;;;;;;;;5041870;28;20211;-74
2021/09/26 12:43:04;;;;;;;6.80;3.78;;;;;;;;;;5041378;28;20223;-74
2021/09/26 12:46:08;;;;;;;5.03;3.13;;;;;;;;;;5054590;28;20179;-74
2021/09/26 12:49:17;;;;;;;6.35;3.40;;;;;;;;;;5042042;28;20173;-75
2021/09/26 12:52:29;;;;;;;6.82;3.55;;;;;;;;;;5054014;28;20218;-74
2021/09/26 12:55:35;;;;;;;7.22;3.53;;;;;;;;;;5054259;28;20627;-74
2021/09/26 12:58:42;;;;;;;8.43;3.90;;;;;;;;;;5042196;28;20181;-74
2021/09/26 13:01:57;;;;;;;7.22;3.42;;;;;;;;;;5053745;28;20218;-74
2021/09/26 13:05:13;;;;;;;7.00;3.65;;;;;;;;;;5041880;28;20184;-76
2021/09/26 13:08:32;;;;;;;8.50;3.88;;;;;;;;;;5041559;28;20187;-74
2021/09/26 13:11:38;;;;;;;5.93;3.78;;;;;;;;;;5054156;28;20554;-74
2021/09/26 13:14:42;;;;;;;10.13;3.83;;;;;;;;;;5053967;28;20189;-74
2021/09/26 13:17:49;;;;;;;4.60;3.65;;;;;;;;;;5054221;28;20634;-74
2021/09/26 13:21:10;;;;;;;10.15;3.45;;;;;;;;;;5041791;28;20679;-74
2021/09/26 13:24:25;;;;;;;5.75;3.42;;;;;;;;;;5053904;28;20188;-76
2021/09/26 13:27:42;;;;;;;5.25;3.53;;;;;;;;;;5041600;28;20190;-76
2021/09/26 13:31:19;;;;;;;6.60;3.60;;;;;;;;;;5053288;28;20216;-76
2021/09/26 13:34:33;;;;;;;4.75;3.22;;;;;;;;;;5029808;28;20186;-76
2021/09/26 13:37:41;;;;;;;9.20;3.88;;;;;;;;;;5053323;28;20641;-74
2021/09/26 13:40:50;;;;;;;6.95;3.55;;;;;;;;;;5029864;28;20217;-76
2021/09/26 13:44:19;;;;;;;7.60;3.53;;;;;;;;;;5053238;28;20190;-74
2021/09/26 13:47:24;;;;;;;8.50;3.90;;;;;;;;;;5053433;28;20188;-74
2021/09/26 13:50:28;;;;;;;10.35;4.22;;;;;;;;;;5053411;28;20180;-76
2021/09/26 13:53:32;;;;;;;8.32;4.07;;;;;;;;;;5040959;28;20180;-76
2021/09/26 13:56:36;;;;;;;9.65;3.90;;;;;;;;;;5041263;28;20548;-76
2021/09/26 13:59:41;;;;;;;8.63;5.03;;;;;;;;;;5041140;28;20174;-76
2021/09/26 14:02:45;;;;;;;12.85;4.75;;;;;;;;;;5052823;28;20233;-76
2021/09/26 14:05:49;;;;;;;9.65;4.93;;;;;;;;;;5040827;28;20187;-76
2021/09/26 14:08:53;;;;;;;7.57;5.07;;;;;;;;;;5041011;28;20181;-76
2021/09/26 14:11:58;;;;;;;9.02;5.47;;;;;;;;;;5040814;28;20696;-76
2021/09/26 14:15:02;;;;;;;10.15;5.72;;;;;;;;;;5053543;28;20186;-76
2021/09/26 14:18:07;;;;;;;8.90;5.20;;;;;;;;;;5053203;28;20180;-76
2021/09/26 14:21:11;;;;;;;11.17;5.40;;;;;;;;;;5053099;28;20548;-76
2021/09/26 14:24:15;;;;;;;8.43;5.38;;;;;;;;;;5029568;28;20181;-76
2021/09/26 14:27:19;;;;;;;6.73;5.80;;;;;;;;;;5040910;28;20177;-76
2021/09/26 14:30:23;;;;;;;11.83;6.47;;;;;;;;;;5052757;28;20182;-76
2021/09/26 14:33:28;;;;;;;19.37;6.07;;;;;;;;;;5056917;28;20623;-76
2021/09/26 14:36:32;;;;;;;12.23;6.13;;;;;;;;;;5044562;28;20180;-76
2021/09/26 14:39:36;;;;;;;11.10;6.57;;;;;;;;;;5032770;28;20207;-76
2021/09/26 14:42:43;;;;;;;11.57;7.10;;;;;;;;;;5056460;28;20235;-76
2021/09/26 14:45:47;;;;;;;11.33;7.00;;;;;;;;;;5056335;28;20652;-76
2021/09/26 14:48:51;;;;;;;8.40;6.53;;;;;;;;;;5056559;28;20204;-76
2021/09/26 14:51:55;;;;;;;11.33;7.13;;;;;;;;;;5043892;28;20212;-76
2021/09/26 14:54:59;;;;;;;10.77;7.03;;;;;;;;;;5056505;28;20170;-76
2021/09/26 14:58:05;;;;;;;15.33;7.20;;;;;;;;;;5048820;28;20193;-76
2021/09/26 15:01:10;;;;;;;10.70;7.27;;;;;;;;;;5065095;28;20221;-76
2021/09/26 15:04:16;;;;;;;10.27;6.70;;;;;;;;;;5032755;28;20638;-76
2021/09/26 15:07:20;;;;;;;8.80;6.37;;;;;;;;;;5046386;28;20187;-75
2021/09/26 15:10:24;;;;;;;9.90;7.00;;;;;;;;;;5047707;28;20197;-76
2021/09/26 15:13:28;;;;;;;9.63;6.93;;;;;;;;;;5063647;28;20183;-75
2021/09/26 15:16:33;;;;;;;9.00;6.50;;;;;;;;;;5052346;28;20178;-75
2021/09/26 15:19:39;;;;;;;7.80;6.70;;;;;;;;;;5058589;28;20656;-76
2021/09/26 15:22:44;;;;;;;12.07;6.97;;;;;;;;;;5046582;28;20222;-76
2021/09/26 15:25:48;;;;;;;10.50;6.93;;;;;;;;;;5051764;28;20194;-76
2021/09/26 15:28:53;;;;;;;8.00;6.53;;;;;;;;;;5069506;28;20544;-76
2021/09/26 15:31:57;;;;;;;9.77;7.37;;;;;;;;;;5061964;28;20229;-76
2021/09/26 15:35:02;;;;;;;7.43;6.63;;;;;;;;;;5071745;28;20650;-76
2021/09/26 15:38:06;;;;;;;10.23;6.70;;;;;;;;;;5057192;28;20238;-77
2021/09/26 15:41:10;;;;;;;11.67;6.87;;;;;;;;;;5051515;28;20224;-76
2021/09/26 15:44:14;;;;;;;11.13;7.30;;;;;;;;;;5041446;28;20196;-76
2021/09/26 15:47:18;;;;;;;9.47;6.50;;;;;;;;;;5047329;28;20190;-76
2021/09/26 15:50:24;;;;;;;10.23;6.90;;;;;;;;;;5039139;28;20184;-76
2021/09/26 15:53:31;;;;;;;9.27;7.43;;;;;;;;;;5060290;28;20191;-76
2021/09/26 15:56:36;;;;;;;9.30;6.90;;;;;;;;;;5059054;28;20234;-76
2021/09/26 15:59:39;;;;;;;13.47;7.67;;;;;;;;;;5052463;28;20539;-75
2021/09/26 16:02:44;;;;;;;9.17;7.23;;;;;;;;;;5067530;28;20236;-76
2021/09/26 16:05:49;;;;;;;11.77;7.37;;;;;;;;;;5058890;28;20201;-76
2021/09/26 16:08:54;;;;;;;10.70;7.43;;;;;;;;;;5038631;28;20199;-76
2021/09/26 16:11:58;;;;;;;10.10;7.37;;;;;;;;;;5051035;28;20593;-76
2021/09/26 16:15:04;;;;;;;10.47;7.50;;;;;;;;;;5038633;28;20601;-76
2021/09/26 16:18:12;;;;;;;9.10;7.10;;;;;;;;;;5051715;28;20192;-76
2021/09/26 16:21:21;;;;;;;11.07;7.80;;;;;;;;;;5050743;28;20226;-76
2021/09/26 16:24:24;;;;;;;9.57;6.63;;;;;;;;;;5060879;28;20215;-76
2021/09/26 16:27:29;;;;;;;8.73;6.70;;;;;;;;;;5059015;28;20197;-77
2021/09/26 16:30:35;;;;;;;7.47;6.33;;;;;;;;;;5026734;28;20184;-75
2021/09/26 16:33:42;;;;;;;10.77;6.70;;;;;;;;;;5031516;28;20206;-76
2021/09/26 16:36:51;;;;;;;8.90;6.87;;;;;;;;;;5057754;28;20191;-76
2021/09/26 16:39:55;;;;;;;11.63;6.80;;;;;;;;;;5052904;28;20204;-76
2021/09/26 16:43:02;;;;;;;10.07;7.27;;;;;;;;;;5049584;28;20212;-75
2021/09/26 16:46:06;;;;;;;9.13;7.23;;;;;;;;;;5038117;28;20188;-76
2021/09/26 16:49:10;;;;;;;8.50;7.10;;;;;;;;;;5050029;28;20184;-76
2021/09/26 16:52:14;;;;;;;10.07;6.80;;;;;;;;;;5038406;28;20219;-76
2021/09/26 16:55:19;;;;;;;7.27;6.57;;;;;;;;;;5050891;28;20180;-76
2021/09/26 16:58:23;;;;;;;9.03;6.50;;;;;;;;;;5038473;28;20568;-76
2021/09/26 17:01:29;;;;;;;8.50;6.83;;;;;;;;;;5053086;28;20211;-75
2021/09/26 17:04:33;;;;;;;8.87;7.00;;;;;;;;;;5063401;28;20215;-75
2021/09/26 17:07:37;;;;;;;7.37;6.67;;;;;;;;;;5046067;28;20183;-76
2021/09/26 17:10:41;;;;;;;6.90;5.70;;;;;;;;;;5057605;28;20187;-75
2021/09/26 17:13:49;;;;;;;9.47;6.63;;;;;;;;;;5070221;28;20179;-76
2021/09/26 17:16:57;;;;;;;7.07;6.17;;;;;;;;;;5054158;28;20191;-75
2021/09/26 17:20:05;;;;;;;9.37;6.67;;;;;;;;;;5033790;28;20184;-75
2021/09/26 17:23:13;;;;;;;7.10;5.97;;;;;;;;;;5052830;28;20208;-75
2021/09/26 17:26:18;;;;;;;7.97;7.17;;;;;;;;;;5049762;28;20192;-75
2021/09/26 17:29:23;;;;;;;7.33;6.07;;;;;;;;;;5048819;28;20195;-75
2021/09/26 17:32:27;;;;;;;6.40;5.80;;;;;;;;;;5041636;28;20560;-75
2021/09/26 17:35:33;;;;;;;7.63;6.03;;;;;;;;;;5050683;28;20531;-75
2021/09/26 17:38:38;;;;;;;6.90;5.80;;;;;;;;;;5049418;28;20204;-75
2021/09/26 17:41:44;;;;;;;7.87;6.20;;;;;;;;;;5049941;28;20698;-75
2021/09/26 17:44:48;;;;;;;7.17;6.00;;;;;;;;;;5036600;28;20212;-75
2021/09/26 17:47:55;;;;;;;7.50;5.97;;;;;;;;;;5055428;28;20188;-75
2021/09/26 17:51:03;;;;;;;7.00;6.30;;;;;;;;;;5045568;28;20290;-75
2021/09/26 17:54:10;;;;;;;9.43;6.13;;;;;;;;;;5056478;28;20183;-75
2021/09/26 17:57:14;;;;;;;7.30;6.60;;;;;;;;;;5069288;28;20199;-75
2021/09/26 18:00:21;;;;;;;8.40;6.53;;;;;;;;;;5049508;28;20183;-75
2021/09/26 18:03:26;;;;;;;9.47;7.17;;;;;;;;;;5049203;28;20204;-75
2021/09/26 18:06:31;;;;;;;8.30;7.13;;;;;;;;;;5062240;28;20191;-75
2021/09/26 18:09:35;;;;;;;9.37;7.60;;;;;;;;;;5064820;28;20650;-75
2021/09/26 18:12:39;;;;;;;8.33;7.50;;;;;;;;;;5066737;28;20219;-75
2021/09/26 18:15:44;;;;;;;10.27;7.90;;;;;;;;;;5071245;28;20195;-75
2021/09/26 18:18:48;;;;;;;8.70;7.80;;;;;;;;;;5072908;28;20183;-74
2021/09/26 18:21:52;;;;;;;8.37;7.57;;;;;;;;;;5062947;28;20223;-74
2021/09/26 18:24:56;;;;;;;10.73;7.10;;;;;;;;;;5058477;28;20211;-75
2021/09/26 18:28:03;;;;;;;9.23;8.27;;;;;;;;;;5072957;28;20191;-75